KEND/END METAR and TAF weather

Enter ICAO airport designator
Station Type Date Time Source
KEND METAR 2022/06/27 17:12 UTC NOAA

KEND 271712Z 06013KT 10SM SCT110 BKN160 25/10 A3034 RMK SLP266


Station Type Date Time Source
KEND Decoded METAR 2022/06/27 17:12 UTC NOAA

Vance Air Force Base / Enid, OK, United States (KEND) 36-20N 097-55W
Jun 27, 2022 - 01:12 PM EDT / 2022.06.27 1712 UTC
Wind: from the ENE (060 degrees) at 15 MPH (13 KT):0
Visibility: 10 mile(s):0
Sky conditions: mostly cloudy
Temperature: 77 F (25 C)
Dew Point: 50 F (10 C)
Relative Humidity: 38%
Pressure (altimeter): 30.34 in. Hg (1027 hPa)
ob: KEND 271712Z 06013KT 10SM SCT110 BKN160 25/10 A3034 RMK SLP266
cycle: 17

Station Type Date Time Source
KEND TAF 2022/06/27 10:12 UTC NOAA

TAF TAF KEND 271000Z 2710/2816 02006KT 9999 OVC150 QNH3027INS
BECMG 2716/2717 07012KT 9999 BKN150 QNH3026INS
BECMG 2802/2803 VRB06KT 9999 BKN100 QNH3022INS TX27/2720Z TN15/2710Z

Example: see airport list